sensor_id;sensor_type;location;lat;lon;timestamp;temperature;humidity
2653;DHT22;1336;48.692;9.144;2022-09-09T05:00:22;17.30;97.20
2653;DHT22;1336;48.692;9.144;2022-09-09T05:01:15;17.30;97.20
2653;DHT22;1336;48.692;9.144;2022-09-09T05:02:07;17.30;97.20
2653;DHT22;1336;48.692;9.144;2022-09-09T05:03:03;17.30;97.20
2653;DHT22;1336;48.692;9.144;2022-09-09T05:03:54;17.30;97.20
2653;DHT22;1336;48.692;9.144;2022-09-09T05:04:46;17.40;97.20
2653;DHT22;1336;48.692;9.144;2022-09-09T05:05:36;17.40;97.20
2653;DHT22;1336;48.692;9.144;2022-09-09T05:06:28;17.40;97.20
2653;DHT22;1336;48.692;9.144;2022-09-09T05:07:21;17.40;97.20
2653;DHT22;1336;48.692;9.144;2022-09-09T05:08:13;17.40;97.20
2653;DHT22;1336;48.692;9.144;2022-09-09T05:09:04;17.40;97.20
2653;DHT22;1336;48.692;9.144;2022-09-09T05:09:56;17.40;97.20
2653;DHT22;1336;48.692;9.144;2022-09-09T05:10:46;17.40;97.20
2653;DHT22;1336;48.692;9.144;2022-09-09T05:11:38;17.40;97.20
2653;DHT22;1336;48.692;9.144;2022-09-09T05:12:29;17.40;97.20
2653;DHT22;1336;48.692;9.144;2022-09-09T05:13:22;17.30;97.20
2653;DHT22;1336;48.692;9.144;2022-09-09T05:14:13;17.30;97.20
2653;DHT22;1336;48.692;9.144;2022-09-09T05:15:06;17.30;97.20
2653;DHT22;1336;48.692;9.144;2022-09-09T05:15:58;17.30;97.20
2653;DHT22;1336;48.692;9.144;2022-09-09T05:16:50;17.30;97.20
2653;DHT22;1336;48.692;9.144;2022-09-09T05:17:41;17.30;97.20
2653;DHT22;1336;48.692;9.144;2022-09-09T05:18:33;17.30;97.20
2653;DHT22;1336;48.692;9.144;2022-09-09T05:19:24;17.30;97.20
2653;DHT22;1336;48.692;9.144;2022-09-09T05:20:15;17.30;97.20
2653;DHT22;1336;48.692;9.144;2022-09-09T05:21:07;17.30;97.20
2653;DHT22;1336;48.692;9.144;2022-09-09T05:21:58;17.30;97.20
2653;DHT22;1336;48.692;9.144;2022-09-09T05:22:52;17.40;97.20
2653;DHT22;1336;48.692;9.144;2022-09-09T05:23:44;17.40;97.20
2653;DHT22;1336;48.692;9.144;2022-09-09T05:24:36;17.40;97.20
2653;DHT22;1336;48.692;9.144;2022-09-09T05:25:28;17.40;97.20
2653;DHT22;1336;48.692;9.144;2022-09-09T05:26:21;17.40;97.20
2653;DHT22;1336;48.692;9.144;2022-09-09T05:27:12;17.40;97.20
2653;DHT22;1336;48.692;9.144;2022-09-09T05:28:03;17.40;97.20
2653;DHT22;1336;48.692;9.144;2022-09-09T05:28:55;17.40;97.20
2653;DHT22;1336;48.692;9.144;2022-09-09T05:29:47;17.40;97.20
2653;DHT22;1336;48.692;9.144;2022-09-09T05:30:38;17.40;97.20
2653;DHT22;1336;48.692;9.144;2022-09-09T05:31:31;17.40;97.20
2653;DHT22;1336;48.692;9.144;2022-09-09T05:32:23;17.40;97.20
2653;DHT22;1336;48.692;9.144;2022-09-09T05:33:15;17.40;97.20
2653;DHT22;1336;48.692;9.144;2022-09-09T05:34:06;17.40;97.20
2653;DHT22;1336;48.692;9.144;2022-09-09T05:34:57;17.40;97.20
2653;DHT22;1336;48.692;9.144;2022-09-09T05:35:55;17.40;97.20
2653;DHT22;1336;48.692;9.144;2022-09-09T05:36:47;17.40;97.20
2653;DHT22;1336;48.692;9.144;2022-09-09T05:37:39;17.40;97.20
2653;DHT22;1336;48.692;9.144;2022-09-09T05:38:30;17.40;97.20
2653;DHT22;1336;48.692;9.144;2022-09-09T05:39:22;17.40;97.20
2653;DHT22;1336;48.692;9.144;2022-09-09T05:40:13;17.40;97.20
2653;DHT22;1336;48.692;9.144;2022-09-09T05:41:05;17.40;97.20
2653;DHT22;1336;48.692;9.144;2022-09-09T05:41:56;17.40;97.20
2653;DHT22;1336;48.692;9.144;2022-09-09T05:42:48;17.40;97.20
2653;DHT22;1336;48.692;9.144;2022-09-09T05:43:39;17.40;97.20
2653;DHT22;1336;48.692;9.144;2022-09-09T05:44:30;17.50;97.20
2653;DHT22;1336;48.692;9.144;2022-09-09T05:45:21;17.50;97.20
2653;DHT22;1336;48.692;9.144;2022-09-09T05:46:14;17.50;97.20
2653;DHT22;1336;48.692;9.144;2022-09-09T05:47:06;17.50;97.20
2653;DHT22;1336;48.692;9.144;2022-09-09T05:48:00;17.60;97.20
2653;DHT22;1336;48.692;9.144;2022-09-09T05:48:53;17.60;97.20
2653;DHT22;1336;48.692;9.144;2022-09-09T05:49:45;17.60;97.20
2653;DHT22;1336;48.692;9.144;2022-09-09T05:50:36;17.60;97.20
2653;DHT22;1336;48.692;9.144;2022-09-09T05:51:28;17.60;97.20
2653;DHT22;1336;48.692;9.144;2022-09-09T05:52:20;17.60;97.20
2653;DHT22;1336;48.692;9.144;2022-09-09T05:53:13;17.60;97.20
2653;DHT22;1336;48.692;9.144;2022-09-09T05:54:03;17.60;97.20
2653;DHT22;1336;48.692;9.144;2022-09-09T05:54:55;17.60;97.20
2653;DHT22;1336;48.692;9.144;2022-09-09T05:55:47;17.60;97.20
2653;DHT22;1336;48.692;9.144;2022-09-09T05:56:39;17.60;97.20
2653;DHT22;1336;48.692;9.144;2022-09-09T05:57:30;17.60;97.20
2653;DHT22;1336;48.692;9.144;2022-09-09T05:58:21;17.60;97.20
2653;DHT22;1336;48.692;9.144;2022-09-09T05:59:13;17.60;97.20
2653;DHT22;1336;48.692;9.144;2022-09-09T06:00:06;17.70;97.20
2653;DHT22;1336;48.692;9.144;2022-09-09T06:01:01;17.70;97.20
2653;DHT22;1336;48.692;9.144;2022-09-09T06:01:53;17.70;97.20
2653;DHT22;1336;48.692;9.144;2022-09-09T06:02:50;17.70;97.20
2653;DHT22;1336;48.692;9.144;2022-09-09T06:03:44;17.70;97.20
2653;DHT22;1336;48.692;9.144;2022-09-09T06:04:35;17.70;97.20
2653;DHT22;1336;48.692;9.144;2022-09-09T06:05:27;17.70;97.20
2653;DHT22;1336;48.692;9.144;2022-09-09T06:06:19;17.70;97.20
2653;DHT22;1336;48.692;9.144;2022-09-09T06:07:12;17.70;97.20
2653;DHT22;1336;48.692;9.144;2022-09-09T06:08:04;17.70;97.20
2653;DHT22;1336;48.692;9.144;2022-09-09T06:08:58;17.70;97.20
2653;DHT22;1336;48.692;9.144;2022-09-09T06:09:48;17.70;97.20
2653;DHT22;1336;48.692;9.144;2022-09-09T06:10:41;17.80;97.20
2653;DHT22;1336;48.692;9.144;2022-09-09T06:11:32;17.80;97.20
2653;DHT22;1336;48.692;9.144;2022-09-09T06:12:25;17.80;97.20
2653;DHT22;1336;48.692;9.144;2022-09-09T06:13:16;17.80;97.20
2653;DHT22;1336;48.692;9.144;2022-09-09T06:14:08;17.80;97.20
2653;DHT22;1336;48.692;9.144;2022-09-09T06:14:59;17.80;97.20
2653;DHT22;1336;48.692;9.144;2022-09-09T06:15:51;17.80;97.20
2653;DHT22;1336;48.692;9.144;2022-09-09T06:16:42;17.80;97.20
2653;DHT22;1336;48.692;9.144;2022-09-09T06:17:34;17.80;97.20
2653;DHT22;1336;48.692;9.144;2022-09-09T06:18:26;17.80;97.20
2653;DHT22;1336;48.692;9.144;2022-09-09T06:19:18;17.80;97.20
2653;DHT22;1336;48.692;9.144;2022-09-09T06:20:11;17.80;97.20
2653;DHT22;1336;48.692;9.144;2022-09-09T06:21:06;17.80;97.20
2653;DHT22;1336;48.692;9.144;2022-09-09T06:21:57;17.90;97.20
2653;DHT22;1336;48.692;9.144;2022-09-09T06:22:48;17.90;97.20
2653;DHT22;1336;48.692;9.144;2022-09-09T06:23:39;17.90;97.20
2653;DHT22;1336;48.692;9.144;2022-09-09T06:24:32;17.90;97.20
2653;DHT22;1336;48.692;9.144;2022-09-09T06:25:23;17.90;97.20
2653;DHT22;1336;48.692;9.144;2022-09-09T06:26:17;17.90;97.20
2653;DHT22;1336;48.692;9.144;2022-09-09T06:27:08;17.90;97.20
2653;DHT22;1336;48.692;9.144;2022-09-09T06:28:01;17.90;97.20
2653;DHT22;1336;48.692;9.144;2022-09-09T06:28:53;17.90;97.20
2653;DHT22;1336;48.692;9.144;2022-09-09T06:29:45;17.90;97.20
2653;DHT22;1336;48.692;9.144;2022-09-09T06:30:36;17.90;97.20
2653;DHT22;1336;48.692;9.144;2022-09-09T06:31:30;17.90;97.20
2653;DHT22;1336;48.692;9.144;2022-09-09T06:32:21;17.90;97.20
2653;DHT22;1336;48.692;9.144;2022-09-09T06:33:12;17.90;97.20
2653;DHT22;1336;48.692;9.144;2022-09-09T06:34:06;17.90;97.20
2653;DHT22;1336;48.692;9.144;2022-09-09T06:34:58;17.90;97.20
2653;DHT22;1336;48.692;9.144;2022-09-09T06:35:51;17.90;97.20
2653;DHT22;1336;48.692;9.144;2022-09-09T06:36:43;17.90;97.20
2653;DHT22;1336;48.692;9.144;2022-09-09T06:37:36;17.90;97.20
2653;DHT22;1336;48.692;9.144;2022-09-09T06:38:27;17.90;97.20
2653;DHT22;1336;48.692;9.144;2022-09-09T06:39:18;17.90;97.20
2653;DHT22;1336;48.692;9.144;2022-09-09T06:40:11;18.00;97.20
2653;DHT22;1336;48.692;9.144;2022-09-09T06:41:01;18.00;97.20
2653;DHT22;1336;48.692;9.144;2022-09-09T06:41:53;18.00;97.20
2653;DHT22;1336;48.692;9.144;2022-09-09T06:42:44;18.00;97.20
2653;DHT22;1336;48.692;9.144;2022-09-09T06:43:36;18.00;97.20
2653;DHT22;1336;48.692;9.144;2022-09-09T06:44:26;18.00;97.20
2653;DHT22;1336;48.692;9.144;2022-09-09T06:45:18;18.10;97.20
2653;DHT22;1336;48.692;9.144;2022-09-09T06:46:11;18.10;97.20
2653;DHT22;1336;48.692;9.144;2022-09-09T06:47:04;18.10;97.20
2653;DHT22;1336;48.692;9.144;2022-09-09T06:47:55;18.10;97.20
2653;DHT22;1336;48.692;9.144;2022-09-09T06:48:48;18.10;97.20
2653;DHT22;1336;48.692;9.144;2022-09-09T06:49:40;18.10;97.20
2653;DHT22;1336;48.692;9.144;2022-09-09T06:50:34;18.10;97.20
2653;DHT22;1336;48.692;9.144;2022-09-09T06:51:26;18.20;97.20
2653;DHT22;1336;48.692;9.144;2022-09-09T06:52:18;18.20;97.20
2653;DHT22;1336;48.692;9.144;2022-09-09T06:53:09;18.20;97.20
2653;DHT22;1336;48.692;9.144;2022-09-09T06:54:02;18.20;97.20
2653;DHT22;1336;48.692;9.144;2022-09-09T06:54:53;18.20;97.20
2653;DHT22;1336;48.692;9.144;2022-09-09T06:55:45;18.20;97.20
2653;DHT22;1336;48.692;9.144;2022-09-09T06:56:37;18.20;97.20
2653;DHT22;1336;48.692;9.144;2022-09-09T06:57:30;18.20;97.20
2653;DHT22;1336;48.692;9.144;2022-09-09T06:58:22;18.20;97.20
2653;DHT22;1336;48.692;9.144;2022-09-09T06:59:13;18.20;97.20
2653;DHT22;1336;48.692;9.144;2022-09-09T07:00:06;18.20;97.20
2653;DHT22;1336;48.692;9.144;2022-09-09T07:01:04;18.20;97.20
2653;DHT22;1336;48.692;9.144;2022-09-09T07:01:56;18.20;97.20
2653;DHT22;1336;48.692;9.144;2022-09-09T07:02:47;18.20;97.20
2653;DHT22;1336;48.692;9.144;2022-09-09T07:03:42;18.20;97.20
2653;DHT22;1336;48.692;9.144;2022-09-09T07:04:33;18.20;97.20
2653;DHT22;1336;48.692;9.144;2022-09-09T07:05:26;18.20;97.20
2653;DHT22;1336;48.692;9.144;2022-09-09T07:06:18;18.20;97.20
2653;DHT22;1336;48.692;9.144;2022-09-09T07:07:10;18.20;97.20
2653;DHT22;1336;48.692;9.144;2022-09-09T07:08:02;18.20;97.20
2653;DHT22;1336;48.692;9.144;2022-09-09T07:08:55;18.20;97.20
2653;DHT22;1336;48.692;9.144;2022-09-09T07:09:46;18.20;97.20
2653;DHT22;1336;48.692;9.144;2022-09-09T07:10:39;18.30;97.20
2653;DHT22;1336;48.692;9.144;2022-09-09T07:11:33;18.30;97.20
2653;DHT22;1336;48.692;9.144;2022-09-09T07:12:24;18.30;97.20
2653;DHT22;1336;48.692;9.144;2022-09-09T07:13:15;18.30;97.20
2653;DHT22;1336;48.692;9.144;2022-09-09T07:14:12;18.30;97.20
2653;DHT22;1336;48.692;9.144;2022-09-09T07:15:05;18.30;97.20
2653;DHT22;1336;48.692;9.144;2022-09-09T07:16:03;18.30;97.20
2653;DHT22;1336;48.692;9.144;2022-09-09T07:16:54;18.30;97.20
2653;DHT22;1336;48.692;9.144;2022-09-09T07:17:46;18.30;97.20
2653;DHT22;1336;48.692;9.144;2022-09-09T07:18:39;18.30;97.20
2653;DHT22;1336;48.692;9.144;2022-09-09T07:19:31;18.40;97.20
2653;DHT22;1336;48.692;9.144;2022-09-09T07:20:22;18.40;97.20
2653;DHT22;1336;48.692;9.144;2022-09-09T07:21:15;18.40;97.20
2653;DHT22;1336;48.692;9.144;2022-09-09T07:22:06;18.40;97.20
2653;DHT22;1336;48.692;9.144;2022-09-09T07:22:58;18.40;97.20
2653;DHT22;1336;48.692;9.144;2022-09-09T07:23:49;18.40;97.20
2653;DHT22;1336;48.692;9.144;2022-09-09T07:24:42;18.40;97.20
2653;DHT22;1336;48.692;9.144;2022-09-09T07:25:34;18.40;97.20
2653;DHT22;1336;48.692;9.144;2022-09-09T07:26:27;18.40;97.20
2653;DHT22;1336;48.692;9.144;2022-09-09T07:27:18;18.40;97.20
2653;DHT22;1336;48.692;9.144;2022-09-09T07:28:10;18.50;97.20
2653;DHT22;1336;48.692;9.144;2022-09-09T07:29:01;18.50;97.20
2653;DHT22;1336;48.692;9.144;2022-09-09T07:29:53;18.50;97.20
2653;DHT22;1336;48.692;9.144;2022-09-09T07:30:53;18.50;97.20
2653;DHT22;1336;48.692;9.144;2022-09-09T07:31:45;18.50;97.20
2653;DHT22;1336;48.692;9.144;2022-09-09T07:32:36;18.50;97.20
2653;DHT22;1336;48.692;9.144;2022-09-09T07:33:27;18.50;97.20
2653;DHT22;1336;48.692;9.144;2022-09-09T07:34:20;18.50;97.20
2653;DHT22;1336;48.692;9.144;2022-09-09T07:35:11;18.50;97.20
2653;DHT22;1336;48.692;9.144;2022-09-09T07:36:06;18.50;97.20
2653;DHT22;1336;48.692;9.144;2022-09-09T07:36:58;18.50;97.20
2653;DHT22;1336;48.692;9.144;2022-09-09T07:37:50;18.60;97.20
2653;DHT22;1336;48.692;9.144;2022-09-09T07:38:42;18.60;97.20
2653;DHT22;1336;48.692;9.144;2022-09-09T07:39:35;18.60;97.20
2653;DHT22;1336;48.692;9.144;2022-09-09T07:40:26;18.60;97.20
2653;DHT22;1336;48.692;9.144;2022-09-09T07:41:21;18.60;97.20
2653;DHT22;1336;48.692;9.144;2022-09-09T07:42:12;18.60;97.20
2653;DHT22;1336;48.692;9.144;2022-09-09T07:43:05;18.70;97.20
2653;DHT22;1336;48.692;9.144;2022-09-09T07:43:56;18.70;97.20
2653;DHT22;1336;48.692;9.144;2022-09-09T07:44:48;18.70;97.20
2653;DHT22;1336;48.692;9.144;2022-09-09T07:45:39;18.70;97.20
2653;DHT22;1336;48.692;9.144;2022-09-09T07:46:32;18.70;97.20
2653;DHT22;1336;48.692;9.144;2022-09-09T07:47:24;18.80;97.20
2653;DHT22;1336;48.692;9.144;2022-09-09T07:48:16;18.80;97.20
2653;DHT22;1336;48.692;9.144;2022-09-09T07:49:08;18.80;97.20
2653;DHT22;1336;48.692;9.144;2022-09-09T07:50:00;18.80;97.20
2653;DHT22;1336;48.692;9.144;2022-09-09T07:50:50;18.80;97.20
2653;DHT22;1336;48.692;9.144;2022-09-09T07:51:45;18.90;97.20
2653;DHT22;1336;48.692;9.144;2022-09-09T07:52:37;18.90;97.20
2653;DHT22;1336;48.692;9.144;2022-09-09T07:53:29;18.90;97.20
2653;DHT22;1336;48.692;9.144;2022-09-09T07:54:21;19.00;97.20
2653;DHT22;1336;48.692;9.144;2022-09-09T07:55:14;19.00;97.20
2653;DHT22;1336;48.692;9.144;2022-09-09T07:56:07;19.00;97.20
2653;DHT22;1336;48.692;9.144;2022-09-09T07:56:59;19.10;97.20
2653;DHT22;1336;48.692;9.144;2022-09-09T07:57:50;19.10;97.20
2653;DHT22;1336;48.692;9.144;2022-09-09T07:58:44;19.10;97.20
2653;DHT22;1336;48.692;9.144;2022-09-09T07:59:35;19.20;97.20
2653;DHT22;1336;48.692;9.144;2022-09-09T08:00:26;19.20;97.20
2653;DHT22;1336;48.692;9.144;2022-09-09T08:01:20;19.20;97.20
2653;DHT22;1336;48.692;9.144;2022-09-09T08:02:12;19.20;97.20
2653;DHT22;1336;48.692;9.144;2022-09-09T08:03:03;19.20;97.20
2653;DHT22;1336;48.692;9.144;2022-09-09T08:03:56;19.20;97.20
2653;DHT22;1336;48.692;9.144;2022-09-09T08:04:49;19.20;97.20
2653;DHT22;1336;48.692;9.144;2022-09-09T08:05:42;19.20;97.20
2653;DHT22;1336;48.692;9.144;2022-09-09T08:06:36;19.20;97.20
2653;DHT22;1336;48.692;9.144;2022-09-09T08:07:28;19.30;97.20
2653;DHT22;1336;48.692;9.144;2022-09-09T08:08:21;19.30;97.20
2653;DHT22;1336;48.692;9.144;2022-09-09T08:09:13;19.30;97.20
2653;DHT22;1336;48.692;9.144;2022-09-09T08:10:04;19.30;97.20
2653;DHT22;1336;48.692;9.144;2022-09-09T08:11:07;19.40;97.20
2653;DHT22;1336;48.692;9.144;2022-09-09T08:11:58;19.40;97.20
2653;DHT22;1336;48.692;9.144;2022-09-09T08:12:51;19.40;97.20
2653;DHT22;1336;48.692;9.144;2022-09-09T08:13:43;19.50;97.20
2653;DHT22;1336;48.692;9.144;2022-09-09T08:14:35;19.50;97.20
2653;DHT22;1336;48.692;9.144;2022-09-09T08:15:26;19.60;97.20
2653;DHT22;1336;48.692;9.144;2022-09-09T08:16:19;19.60;97.20
2653;DHT22;1336;48.692;9.144;2022-09-09T08:17:12;19.70;97.20
2653;DHT22;1336;48.692;9.144;2022-09-09T08:18:03;19.70;97.20
2653;DHT22;1336;48.692;9.144;2022-09-09T08:18:54;19.80;97.20
2653;DHT22;1336;48.692;9.144;2022-09-09T08:19:46;19.80;97.20
2653;DHT22;1336;48.692;9.144;2022-09-09T08:20:37;19.90;97.20
2653;DHT22;1336;48.692;9.144;2022-09-09T08:21:31;19.90;97.20
2653;DHT22;1336;48.692;9.144;2022-09-09T08:22:22;20.00;97.20
2653;DHT22;1336;48.692;9.144;2022-09-09T08:23:14;20.00;97.20
2653;DHT22;1336;48.692;9.144;2022-09-09T08:24:08;20.10;97.20
2653;DHT22;1336;48.692;9.144;2022-09-09T08:25:00;20.10;97.20
2653;DHT22;1336;48.692;9.144;2022-09-09T08:25:52;20.10;97.20
2653;DHT22;1336;48.692;9.144;2022-09-09T08:26:46;20.20;97.20
2653;DHT22;1336;48.692;9.144;2022-09-09T08:27:39;20.20;97.20
2653;DHT22;1336;48.692;9.144;2022-09-09T08:28:30;20.20;97.20
2653;DHT22;1336;48.692;9.144;2022-09-09T08:29:22;20.20;97.20
2653;DHT22;1336;48.692;9.144;2022-09-09T08:30:14;20.30;97.20
2653;DHT22;1336;48.692;9.144;2022-09-09T08:31:11;20.30;97.20
2653;DHT22;1336;48.692;9.144;2022-09-09T08:32:02;20.30;97.20
2653;DHT22;1336;48.692;9.144;2022-09-09T08:32:53;20.30;97.20
2653;DHT22;1336;48.692;9.144;2022-09-09T08:33:45;20.40;97.20
2653;DHT22;1336;48.692;9.144;2022-09-09T08:34:36;20.40;97.20
2653;DHT22;1336;48.692;9.144;2022-09-09T08:35:27;20.40;97.20
2653;DHT22;1336;48.692;9.144;2022-09-09T08:36:24;20.50;97.20
2653;DHT22;1336;48.692;9.144;2022-09-09T08:37:16;20.50;97.20
2653;DHT22;1336;48.692;9.144;2022-09-09T08:38:08;20.50;97.20
2653;DHT22;1336;48.692;9.144;2022-09-09T08:38:59;20.60;97.20
2653;DHT22;1336;48.692;9.144;2022-09-09T08:39:52;20.70;97.20
2653;DHT22;1336;48.692;9.144;2022-09-09T08:40:46;20.70;97.20
2653;DHT22;1336;48.692;9.144;2022-09-09T08:42:03;20.80;97.20
2653;DHT22;1336;48.692;9.144;2022-09-09T08:42:59;20.80;97.20
2653;DHT22;1336;48.692;9.144;2022-09-09T08:44:00;20.90;97.20
2653;DHT22;1336;48.692;9.144;2022-09-09T08:45:06;20.90;97.20
2653;DHT22;1336;48.692;9.144;2022-09-09T08:46:07;20.90;97.20
2653;DHT22;1336;48.692;9.144;2022-09-09T08:47:06;20.90;97.20
2653;DHT22;1336;48.692;9.144;2022-09-09T08:48:15;21.00;97.20
2653;DHT22;1336;48.692;9.144;2022-09-09T08:49:21;21.00;97.20
2653;DHT22;1336;48.692;9.144;2022-09-09T08:50:19;21.00;97.20
2653;DHT22;1336;48.692;9.144;2022-09-09T08:51:15;21.00;97.20
2653;DHT22;1336;48.692;9.144;2022-09-09T08:52:08;21.00;97.20
2653;DHT22;1336;48.692;9.144;2022-09-09T08:53:05;21.00;97.20
2653;DHT22;1336;48.692;9.144;2022-09-09T08:54:02;21.00;97.20
2653;DHT22;1336;48.692;9.144;2022-09-09T08:54:58;21.00;97.20
2653;DHT22;1336;48.692;9.144;2022-09-09T08:55:54;21.00;97.20
2653;DHT22;1336;48.692;9.144;2022-09-09T08:56:46;21.00;97.20
2653;DHT22;1336;48.692;9.144;2022-09-09T08:57:39;21.00;97.20
2653;DHT22;1336;48.692;9.144;2022-09-09T08:58:31;21.00;97.20
2653;DHT22;1336;48.692;9.144;2022-09-09T08:59:23;21.00;97.20
2653;DHT22;1336;48.692;9.144;2022-09-09T09:00:14;21.00;97.20
2653;DHT22;1336;48.692;9.144;2022-09-09T09:01:26;21.00;97.20
2653;DHT22;1336;48.692;9.144;2022-09-09T09:02:22;21.10;97.20
2653;DHT22;1336;48.692;9.144;2022-09-09T09:03:24;21.10;97.20
2653;DHT22;1336;48.692;9.144;2022-09-09T09:04:33;21.10;97.20
2653;DHT22;1336;48.692;9.144;2022-09-09T09:05:31;21.10;97.20
2653;DHT22;1336;48.692;9.144;2022-09-09T09:06:31;21.10;97.20
2653;DHT22;1336;48.692;9.144;2022-09-09T09:07:38;21.10;97.20
2653;DHT22;1336;48.692;9.144;2022-09-09T09:08:38;21.10;97.20
2653;DHT22;1336;48.692;9.144;2022-09-09T09:09:37;21.10;97.20
2653;DHT22;1336;48.692;9.144;2022-09-09T09:10:44;21.10;97.20
2653;DHT22;1336;48.692;9.144;2022-09-09T09:11:39;21.20;97.20
2653;DHT22;1336;48.692;9.144;2022-09-09T09:12:37;21.20;97.20
2653;DHT22;1336;48.692;9.144;2022-09-09T09:13:35;21.30;97.20
2653;DHT22;1336;48.692;9.144;2022-09-09T09:14:34;21.40;97.20
2653;DHT22;1336;48.692;9.144;2022-09-09T09:15:30;21.40;97.20
2653;DHT22;1336;48.692;9.144;2022-09-09T09:16:26;21.50;97.20
2653;DHT22;1336;48.692;9.144;2022-09-09T09:17:20;21.50;97.20
2653;DHT22;1336;48.692;9.144;2022-09-09T09:18:12;21.50;97.20
2653;DHT22;1336;48.692;9.144;2022-09-09T09:19:08;21.50;97.20
2653;DHT22;1336;48.692;9.144;2022-09-09T09:20:03;21.50;97.20
2653;DHT22;1336;48.692;9.144;2022-09-09T09:21:03;21.40;97.20
2653;DHT22;1336;48.692;9.144;2022-09-09T09:22:01;21.20;97.20
2653;DHT22;1336;48.692;9.144;2022-09-09T09:22:55;21.10;97.20
2653;DHT22;1336;48.692;9.144;2022-09-09T09:23:55;20.90;97.20
2653;DHT22;1336;48.692;9.144;2022-09-09T09:24:52;20.70;97.20
2653;DHT22;1336;48.692;9.144;2022-09-09T09:25:44;20.60;97.20
2653;DHT22;1336;48.692;9.144;2022-09-09T09:26:37;20.40;97.20
2653;DHT22;1336;48.692;9.144;2022-09-09T09:27:33;20.30;97.20
2653;DHT22;1336;48.692;9.144;2022-09-09T09:28:28;20.20;97.20
2653;DHT22;1336;48.692;9.144;2022-09-09T09:29:21;20.00;97.20
2653;DHT22;1336;48.692;9.144;2022-09-09T09:30:15;20.00;97.20
2653;DHT22;1336;48.692;9.144;2022-09-09T09:31:09;19.90;97.20
2653;DHT22;1336;48.692;9.144;2022-09-09T09:32:02;19.90;97.20
2653;DHT22;1336;48.692;9.144;2022-09-09T09:32:56;19.90;97.20
2653;DHT22;1336;48.692;9.144;2022-09-09T09:33:51;20.00;97.20
2653;DHT22;1336;48.692;9.144;2022-09-09T09:34:48;20.00;97.20
2653;DHT22;1336;48.692;9.144;2022-09-09T09:35:40;20.10;97.20
2653;DHT22;1336;48.692;9.144;2022-09-09T09:36:38;20.10;97.20
2653;DHT22;1336;48.692;9.144;2022-09-09T09:37:33;20.20;97.20
2653;DHT22;1336;48.692;9.144;2022-09-09T09:38:27;20.20;97.20
2653;DHT22;1336;48.692;9.144;2022-09-09T09:39:24;20.30;97.20
2653;DHT22;1336;48.692;9.144;2022-09-09T09:40:16;20.40;97.20
2653;DHT22;1336;48.692;9.144;2022-09-09T09:41:10;20.50;97.20
2653;DHT22;1336;48.692;9.144;2022-09-09T09:42:09;20.60;97.20
2653;DHT22;1336;48.692;9.144;2022-09-09T09:43:04;20.70;97.20
2653;DHT22;1336;48.692;9.144;2022-09-09T09:43:59;20.80;97.20
2653;DHT22;1336;48.692;9.144;2022-09-09T09:44:52;20.90;97.20
2653;DHT22;1336;48.692;9.144;2022-09-09T09:45:43;21.00;97.20
2653;DHT22;1336;48.692;9.144;2022-09-09T09:46:35;21.00;97.20
2653;DHT22;1336;48.692;9.144;2022-09-09T09:47:27;21.10;97.20
2653;DHT22;1336;48.692;9.144;2022-09-09T09:48:19;21.10;97.20
2653;DHT22;1336;48.692;9.144;2022-09-09T09:49:10;21.20;97.20
2653;DHT22;1336;48.692;9.144;2022-09-09T09:50:15;21.20;97.20
2653;DHT22;1336;48.692;9.144;2022-09-09T09:51:09;21.20;97.20
2653;DHT22;1336;48.692;9.144;2022-09-09T09:52:03;21.30;97.20
2653;DHT22;1336;48.692;9.144;2022-09-09T09:52:56;21.30;97.20
2653;DHT22;1336;48.692;9.144;2022-09-09T09:53:48;21.40;97.20
2653;DHT22;1336;48.692;9.144;2022-09-09T09:54:41;21.40;97.20
2653;DHT22;1336;48.692;9.144;2022-09-09T09:55:35;21.50;97.20
2653;DHT22;1336;48.692;9.144;2022-09-09T09:56:28;21.50;97.20
2653;DHT22;1336;48.692;9.144;2022-09-09T09:57:25;21.60;97.20
2653;DHT22;1336;48.692;9.144;2022-09-09T09:58:18;21.60;97.20
2653;DHT22;1336;48.692;9.144;2022-09-09T09:59:21;21.70;97.20
2653;DHT22;1336;48.692;9.144;2022-09-09T10:00:14;21.70;97.20
2653;DHT22;1336;48.692;9.144;2022-09-09T10:01:20;21.80;97.20
2653;DHT22;1336;48.692;9.144;2022-09-09T10:02:20;21.80;97.20
2653;DHT22;1336;48.692;9.144;2022-09-09T10:03:24;21.90;97.20
2653;DHT22;1336;48.692;9.144;2022-09-09T10:04:18;22.00;97.20
2653;DHT22;1336;48.692;9.144;2022-09-09T10:05:15;22.00;97.20
2653;DHT22;1336;48.692;9.144;2022-09-09T10:06:06;22.00;97.20
2653;DHT22;1336;48.692;9.144;2022-09-09T10:06:58;21.90;97.20
2653;DHT22;1336;48.692;9.144;2022-09-09T10:08:01;21.90;97.20
2653;DHT22;1336;48.692;9.144;2022-09-09T10:08:53;21.80;97.20
2653;DHT22;1336;48.692;9.144;2022-09-09T10:09:43;21.80;97.20
2653;DHT22;1336;48.692;9.144;2022-09-09T10:10:42;21.80;97.20
2653;DHT22;1336;48.692;9.144;2022-09-09T10:11:44;21.80;97.20
2653;DHT22;1336;48.692;9.144;2022-09-09T10:12:46;21.90;97.20
2653;DHT22;1336;48.692;9.144;2022-09-09T10:13:48;21.90;97.20
2653;DHT22;1336;48.692;9.144;2022-09-09T10:14:52;21.90;97.20
2653;DHT22;1336;48.692;9.144;2022-09-09T10:15:56;21.90;97.20
2653;DHT22;1336;48.692;9.144;2022-09-09T10:17:02;21.90;97.20
2653;DHT22;1336;48.692;9.144;2022-09-09T10:18:04;22.00;97.20
2653;DHT22;1336;48.692;9.144;2022-09-09T10:19:02;22.00;97.20
2653;DHT22;1336;48.692;9.144;2022-09-09T10:20:04;22.10;97.20
2653;DHT22;1336;48.692;9.144;2022-09-09T10:21:13;22.10;97.20
2653;DHT22;1336;48.692;9.144;2022-09-09T10:22:19;22.20;97.20
2653;DHT22;1336;48.692;9.144;2022-09-09T10:23:26;22.20;97.20
2653;DHT22;1336;48.692;9.144;2022-09-09T10:24:35;22.30;97.20
2653;DHT22;1336;48.692;9.144;2022-09-09T10:25:38;22.40;97.20
2653;DHT22;1336;48.692;9.144;2022-09-09T10:26:42;22.40;97.20
2653;DHT22;1336;48.692;9.144;2022-09-09T10:27:40;22.40;97.20
2653;DHT22;1336;48.692;9.144;2022-09-09T10:28:47;22.40;97.20
2653;DHT22;1336;48.692;9.144;2022-09-09T10:29:49;22.40;97.20
2653;DHT22;1336;48.692;9.144;2022-09-09T10:30:49;22.40;97.20
2653;DHT22;1336;48.692;9.144;2022-09-09T10:31:50;22.50;97.20
2653;DHT22;1336;48.692;9.144;2022-09-09T10:32:48;22.60;97.20
2653;DHT22;1336;48.692;9.144;2022-09-09T10:33:49;22.60;97.20
2653;DHT22;1336;48.692;9.144;2022-09-09T10:34:56;22.70;97.20
2653;DHT22;1336;48.692;9.144;2022-09-09T10:35:52;22.80;97.20
2653;DHT22;1336;48.692;9.144;2022-09-09T10:36:47;22.80;97.20
2653;DHT22;1336;48.692;9.144;2022-09-09T10:37:57;22.90;97.20
2653;DHT22;1336;48.692;9.144;2022-09-09T10:38:57;22.90;97.20
2653;DHT22;1336;48.692;9.144;2022-09-09T10:39:55;23.00;97.20
2653;DHT22;1336;48.692;9.144;2022-09-09T10:41:13;23.10;97.20
2653;DHT22;1336;48.692;9.144;2022-09-09T10:42:09;23.20;97.20
2653;DHT22;1336;48.692;9.144;2022-09-09T10:43:11;23.20;97.20
2653;DHT22;1336;48.692;9.144;2022-09-09T10:44:23;23.30;97.20
2653;DHT22;1336;48.692;9.144;2022-09-09T10:45:20;23.30;97.20
2653;DHT22;1336;48.692;9.144;2022-09-09T10:46:17;23.30;97.20
2653;DHT22;1336;48.692;9.144;2022-09-09T10:47:35;23.30;97.20
2653;DHT22;1336;48.692;9.144;2022-09-09T10:48:36;23.30;97.20
2653;DHT22;1336;48.692;9.144;2022-09-09T10:49:53;23.40;97.20
2653;DHT22;1336;48.692;9.144;2022-09-09T10:50:55;23.50;97.20
2653;DHT22;1336;48.692;9.144;2022-09-09T10:51:55;23.50;97.20
2653;DHT22;1336;48.692;9.144;2022-09-09T10:52:56;23.60;97.20
2653;DHT22;1336;48.692;9.144;2022-09-09T10:54:05;23.70;97.20
2653;DHT22;1336;48.692;9.144;2022-09-09T10:55:07;23.80;97.20
2653;DHT22;1336;48.692;9.144;2022-09-09T10:56:06;23.90;97.20